createdAt,value
2023-02-02T00:00:38.166Z,93737.03
2023-02-02T00:01:35.226Z,93735.88
2023-02-02T00:02:31.926Z,93737.25
2023-02-02T00:03:28.547Z,93741.72
2023-02-02T00:04:28.184Z,93739.56
2023-02-02T00:05:25.101Z,93651.69
2023-02-02T00:06:23.865Z,93740.53
2023-02-02T00:07:20.422Z,93728.00
2023-02-02T00:08:18.050Z,93736.75
2023-02-02T00:09:19.190Z,93744.47
2023-02-02T00:10:16.152Z,93747.34
2023-02-02T00:11:13.257Z,93735.84
2023-02-02T00:12:10.305Z,93747.28
2023-02-02T00:13:06.940Z,93753.59
2023-02-02T00:14:03.664Z,93752.25
2023-02-02T00:15:00.303Z,93738.59
2023-02-02T00:15:57.091Z,93750.03
2023-02-02T00:16:55.130Z,93750.59
2023-02-02T00:17:51.838Z,93750.97
2023-02-02T00:18:49.354Z,93752.66
2023-02-02T00:19:46.857Z,93739.59
2023-02-02T00:20:44.823Z,93750.22
2023-02-02T00:21:42.203Z,93721.28
2023-02-02T00:22:38.865Z,93757.50
2023-02-02T00:23:35.424Z,93665.34
2023-02-02T00:24:32.138Z,93722.31
2023-02-02T00:25:29.017Z,93757.03
2023-02-02T00:26:26.462Z,93756.25
2023-02-02T00:27:23.146Z,93746.81
2023-02-02T00:28:19.734Z,93751.94
2023-02-02T00:29:22.124Z,93752.72
2023-02-02T00:30:18.938Z,93758.97
2023-02-02T00:31:15.626Z,93761.03
2023-02-02T00:32:13.361Z,93759.34
2023-02-02T00:33:09.917Z,93764.53
2023-02-02T00:34:06.463Z,93764.63
2023-02-02T00:35:03.094Z,93756.03
2023-02-02T00:35:59.673Z,93753.91
2023-02-02T00:36:56.420Z,93756.72
2023-02-02T00:37:52.971Z,93756.88
2023-02-02T00:38:51.191Z,93725.50
2023-02-02T00:39:47.785Z,93748.53
2023-02-02T00:40:44.629Z,93742.00
2023-02-02T00:41:41.167Z,93739.47
2023-02-02T00:42:37.769Z,93742.47
2023-02-02T00:43:34.438Z,93756.72
2023-02-02T00:44:50.094Z,93755.16
2023-02-02T00:45:47.159Z,93715.19
2023-02-02T00:46:43.838Z,93716.84
2023-02-02T00:47:40.425Z,93761.44
2023-02-02T00:48:37.030Z,93755.97
2023-02-02T00:49:33.598Z,93757.66
2023-02-02T00:50:30.842Z,93752.16
2023-02-02T00:51:27.449Z,93652.81
2023-02-02T00:52:24.006Z,93749.19
2023-02-02T00:53:20.589Z,93748.06
2023-02-02T00:54:17.178Z,93750.22
2023-02-02T00:55:15.049Z,93689.94
2023-02-02T00:56:11.707Z,93743.06
2023-02-02T00:57:13.228Z,93754.00
2023-02-02T00:58:09.782Z,93730.81
2023-02-02T00:59:06.563Z,93750.94
2023-02-02T01:00:05.316Z,93705.81
2023-02-02T01:01:02.052Z,93746.88
2023-02-02T01:01:58.917Z,93707.31
2023-02-02T01:02:57.034Z,93737.19
2023-02-02T01:03:53.588Z,93666.69
2023-02-02T01:04:51.759Z,93740.16
2023-02-02T01:05:50.633Z,93750.31
2023-02-02T01:06:47.326Z,93742.03
2023-02-02T01:07:44.076Z,93747.69
2023-02-02T01:08:40.899Z,93739.25
2023-02-02T01:09:37.472Z,93735.53
2023-02-02T01:10:34.453Z,93747.91
2023-02-02T01:11:31.132Z,93750.81
2023-02-02T01:12:27.720Z,93737.16
2023-02-02T01:13:24.368Z,93693.97
2023-02-02T01:14:21.099Z,93693.59
2023-02-02T01:15:17.829Z,93730.59
2023-02-02T01:16:14.521Z,93732.75
2023-02-02T01:17:11.240Z,93729.44
2023-02-02T01:18:07.871Z,93724.84
2023-02-02T01:19:04.475Z,93728.75
2023-02-02T01:20:01.086Z,93718.41
2023-02-02T01:21:03.136Z,93712.81
2023-02-02T01:21:59.760Z,93720.94
2023-02-02T01:22:56.455Z,93724.41
2023-02-02T01:23:53.062Z,93707.88
2023-02-02T01:24:49.631Z,93719.72
2023-02-02T01:25:46.309Z,93709.00
2023-02-02T01:26:43.199Z,93711.13
2023-02-02T01:27:39.874Z,93717.19
2023-02-02T01:28:37.473Z,93673.06
2023-02-02T01:29:34.251Z,93716.78
2023-02-02T01:30:30.929Z,93710.16
2023-02-02T01:31:27.619Z,93713.28
2023-02-02T01:32:24.254Z,93656.97
2023-02-02T01:33:21.218Z,93710.03
2023-02-02T01:34:17.961Z,93709.78
2023-02-02T01:35:14.595Z,93700.84
2023-02-02T01:36:15.842Z,93701.00
2023-02-02T01:37:12.420Z,93668.88
2023-02-02T01:38:09.008Z,93659.69
2023-02-02T01:39:05.739Z,93673.09
2023-02-02T01:40:02.385Z,93713.53
2023-02-02T01:40:59.049Z,93673.50
2023-02-02T01:41:55.685Z,93702.91
2023-02-02T01:42:52.364Z,93664.97
2023-02-02T01:43:53.324Z,93672.56
2023-02-02T01:44:53.015Z,93692.75
2023-02-02T01:45:51.107Z,93701.16
2023-02-02T01:46:47.704Z,93607.22
2023-02-02T01:47:50.513Z,93695.97
2023-02-02T01:48:52.300Z,93686.13
2023-02-02T01:49:49.017Z,93691.75
2023-02-02T01:50:47.654Z,93678.97
2023-02-02T01:51:52.175Z,93684.28
2023-02-02T01:52:51.897Z,93692.41
2023-02-02T01:53:50.994Z,93709.31
2023-02-02T01:54:55.276Z,93648.13
2023-02-02T01:55:52.639Z,93706.59
2023-02-02T01:56:59.120Z,93691.03
2023-02-02T01:58:03.924Z,93709.19
2023-02-02T01:59:01.943Z,93699.19
2023-02-02T02:00:02.946Z,93706.88
2023-02-02T02:00:59.578Z,93707.31
2023-02-02T02:01:56.404Z,93685.97
2023-02-02T02:03:01.506Z,93678.88
2023-02-02T02:03:58.566Z,93708.03
2023-02-02T02:04:55.874Z,93697.88
2023-02-02T02:06:01.493Z,93701.19
2023-02-02T02:07:00.900Z,93667.94
2023-02-02T02:08:06.436Z,93712.06
2023-02-02T02:09:05.138Z,93713.72
2023-02-02T02:10:01.888Z,93708.84
2023-02-02T02:10:58.557Z,93708.78
2023-02-02T02:11:55.233Z,93710.56
2023-02-02T02:12:52.001Z,93673.19
2023-02-02T02:14:08.844Z,93709.31
2023-02-02T02:15:24.788Z,93707.88
2023-02-02T02:16:41.065Z,93711.59
2023-02-02T02:17:59.227Z,93552.66
2023-02-02T02:19:13.986Z,93709.88
2023-02-02T02:20:48.141Z,93713.25
2023-02-02T02:22:18.541Z,93704.00
2023-02-02T02:23:48.898Z,93698.22
2023-02-02T02:25:10.157Z,93715.06
2023-02-02T02:26:40.946Z,93714.91
2023-02-02T02:28:19.266Z,93718.22
2023-02-02T02:29:37.196Z,93710.44
2023-02-02T02:31:01.843Z,93709.09
2023-02-02T02:32:17.768Z,93716.03
2023-02-02T02:33:44.118Z,93715.38
2023-02-02T02:35:14.703Z,93711.63
2023-02-02T02:36:17.601Z,93705.78
2023-02-02T02:37:23.463Z,93674.22
2023-02-02T02:38:29.190Z,93706.91
2023-02-02T02:39:33.571Z,93707.47
2023-02-02T02:40:39.898Z,93707.25
2023-02-02T02:41:43.378Z,93697.34
2023-02-02T02:42:46.821Z,93699.50
2023-02-02T02:43:52.853Z,93633.44
2023-02-02T02:44:50.822Z,93684.81
2023-02-02T02:45:47.879Z,93667.50
2023-02-02T02:46:45.480Z,93685.22
2023-02-02T02:47:43.782Z,93653.88
2023-02-02T02:48:44.791Z,93657.78
2023-02-02T02:49:45.725Z,93696.09
2023-02-02T02:50:42.366Z,93703.25
2023-02-02T02:51:52.392Z,93702.59
2023-02-02T02:52:52.951Z,93651.31
2023-02-02T02:53:49.538Z,93704.56
2023-02-02T02:54:54.796Z,93706.28
2023-02-02T02:55:53.908Z,93711.16
2023-02-02T02:57:08.682Z,93701.88
2023-02-02T02:58:24.078Z,93708.88
2023-02-02T02:59:55.616Z,93703.91
2023-02-02T03:01:02.707Z,93698.13
2023-02-02T03:02:01.999Z,93703.69
2023-02-02T03:03:21.788Z,93701.19
2023-02-02T03:04:39.867Z,93693.41
2023-02-02T03:05:56.308Z,93690.72
2023-02-02T03:07:00.367Z,93689.50
2023-02-02T03:08:19.274Z,93692.88
2023-02-02T03:09:22.310Z,93702.31
2023-02-02T03:10:24.170Z,93694.44
2023-02-02T03:11:21.381Z,93693.19
2023-02-02T03:12:18.555Z,93679.91
2023-02-02T03:13:16.936Z,93704.97
2023-02-02T03:14:13.655Z,93700.78
2023-02-02T03:15:10.880Z,93711.28
2023-02-02T03:16:08.868Z,93715.78
2023-02-02T03:17:05.533Z,93715.06
2023-02-02T03:18:02.284Z,93712.81
2023-02-02T03:18:59.132Z,93669.22
2023-02-02T03:19:55.742Z,93720.63
2023-02-02T03:20:52.305Z,93718.59
2023-02-02T03:21:48.909Z,93707.44
2023-02-02T03:22:45.602Z,93713.09
2023-02-02T03:23:42.244Z,93708.50
2023-02-02T03:24:38.811Z,93693.59
2023-02-02T03:25:35.447Z,93716.59
2023-02-02T03:26:32.094Z,93712.72
2023-02-02T03:27:29.374Z,93714.72
2023-02-02T03:28:26.354Z,93694.84
2023-02-02T03:29:22.964Z,93714.88
2023-02-02T03:30:19.911Z,93711.78
2023-02-02T03:31:16.733Z,93721.34
2023-02-02T03:32:13.335Z,93718.91
2023-02-02T03:33:11.893Z,93679.34
2023-02-02T03:34:08.501Z,93711.97
2023-02-02T03:35:05.696Z,93717.69
2023-02-02T03:36:02.440Z,93713.75
2023-02-02T03:36:59.109Z,93715.19
2023-02-02T03:37:55.679Z,93711.56
2023-02-02T03:38:52.234Z,93637.13
2023-02-02T03:39:48.927Z,93719.84
2023-02-02T03:40:45.561Z,93712.94
2023-02-02T03:41:42.160Z,93711.88
2023-02-02T03:42:39.185Z,93707.47
2023-02-02T03:43:35.836Z,93718.28
2023-02-02T03:44:32.407Z,93697.31
2023-02-02T03:45:29.375Z,93661.63
2023-02-02T03:46:26.009Z,93707.22
2023-02-02T03:47:22.755Z,93710.88
2023-02-02T03:48:19.375Z,93638.75
2023-02-02T03:49:16.037Z,93711.47
2023-02-02T03:50:12.755Z,93683.13
2023-02-02T03:51:14.130Z,93709.16
2023-02-02T03:52:10.738Z,93703.97
2023-02-02T03:53:07.337Z,93703.78
2023-02-02T03:54:04.946Z,93711.81
2023-02-02T03:55:01.663Z,93709.31
2023-02-02T03:55:58.283Z,93702.44
2023-02-02T03:56:54.914Z,93683.63
2023-02-02T03:57:51.490Z,93697.41
2023-02-02T03:58:48.138Z,93692.81
2023-02-02T03:59:44.740Z,93703.97
2023-02-02T04:00:41.321Z,93699.31
2023-02-02T04:01:37.938Z,93700.91
2023-02-02T04:02:34.587Z,93702.09
2023-02-02T04:03:31.160Z,93701.94
2023-02-02T04:04:27.790Z,93692.81
2023-02-02T04:05:24.630Z,93650.19
2023-02-02T04:06:21.940Z,93639.22
2023-02-02T04:07:18.544Z,93695.44
2023-02-02T04:08:16.316Z,93699.75
2023-02-02T04:09:13.032Z,93689.56
2023-02-02T04:10:10.333Z,93696.38
2023-02-02T04:11:10.534Z,93707.47
2023-02-02T04:12:07.328Z,93704.84
2023-02-02T04:13:03.891Z,93700.66
2023-02-02T04:14:00.725Z,93704.44
2023-02-02T04:14:57.300Z,93709.59
2023-02-02T04:16:00.982Z,93697.59
2023-02-02T04:16:57.673Z,93679.56
2023-02-02T04:17:54.314Z,93706.72
2023-02-02T04:18:51.088Z,93707.34
2023-02-02T04:19:47.694Z,93651.31
2023-02-02T04:20:44.308Z,93713.75
2023-02-02T04:21:41.253Z,93688.78
2023-02-02T04:22:37.844Z,93713.53
2023-02-02T04:23:35.368Z,93712.31
2023-02-02T04:24:31.924Z,93719.84
2023-02-02T04:25:28.504Z,93689.59
2023-02-02T04:26:26.275Z,93716.75
2023-02-02T04:27:23.404Z,93711.44
2023-02-02T04:28:21.095Z,93720.41
2023-02-02T04:29:17.718Z,93718.59
2023-02-02T04:30:14.428Z,93715.78
2023-02-02T04:31:11.138Z,93721.31
2023-02-02T04:32:07.908Z,93715.03
2023-02-02T04:33:04.506Z,93715.78
2023-02-02T04:34:01.407Z,93673.63
2023-02-02T04:34:57.967Z,93712.97
2023-02-02T04:35:55.149Z,93701.88
2023-02-02T04:36:51.748Z,93717.75
2023-02-02T04:37:48.302Z,93726.59
2023-02-02T04:38:48.686Z,93723.91
2023-02-02T04:39:45.323Z,93720.28
2023-02-02T04:40:44.437Z,93718.13
2023-02-02T04:41:41.019Z,93717.84
2023-02-02T04:42:37.560Z,93717.34
2023-02-02T04:43:35.273Z,93713.53
2023-02-02T04:44:31.942Z,93699.22
2023-02-02T04:45:28.684Z,93724.19
2023-02-02T04:46:26.628Z,93727.06
2023-02-02T04:47:23.359Z,93726.63
2023-02-02T04:48:19.908Z,93685.72
2023-02-02T04:49:16.616Z,93730.88
2023-02-02T04:50:13.323Z,93734.31
2023-02-02T04:51:12.888Z,93721.06
2023-02-02T04:52:11.271Z,93734.59
2023-02-02T04:53:07.901Z,93727.59
2023-02-02T04:54:05.384Z,93739.06
2023-02-02T04:55:01.956Z,93700.19
2023-02-02T04:55:58.819Z,93738.16
2023-02-02T04:56:55.437Z,93734.53
2023-02-02T04:57:52.065Z,93727.50
2023-02-02T04:58:48.686Z,93737.22
2023-02-02T04:59:45.254Z,93736.44
2023-02-02T05:00:41.901Z,93735.66
2023-02-02T05:01:38.582Z,93700.31
2023-02-02T05:02:39.983Z,93738.63
2023-02-02T05:03:36.569Z,93733.09
2023-02-02T05:04:33.174Z,93730.00
2023-02-02T05:05:29.855Z,93743.38
2023-02-02T05:06:26.525Z,93734.50
2023-02-02T05:07:23.204Z,93735.03
2023-02-02T05:08:19.832Z,93745.44
2023-02-02T05:09:16.458Z,93745.72
2023-02-02T05:10:13.040Z,93740.69
2023-02-02T05:11:11.602Z,93733.09
2023-02-02T05:12:08.186Z,93740.66
2023-02-02T05:13:04.743Z,93732.59
2023-02-02T05:14:01.293Z,93736.28
2023-02-02T05:15:01.033Z,93738.69
2023-02-02T05:15:57.664Z,93733.91
2023-02-02T05:16:54.532Z,93704.25
2023-02-02T05:17:51.105Z,93690.41
2023-02-02T05:18:52.909Z,93742.84
2023-02-02T05:19:49.509Z,93745.66
2023-02-02T05:20:46.109Z,93698.72
2023-02-02T05:21:51.152Z,93741.72
2023-02-02T05:22:51.025Z,93742.63
2023-02-02T05:23:48.709Z,93712.91
2023-02-02T05:24:45.355Z,93721.69
2023-02-02T05:25:41.919Z,93749.81
2023-02-02T05:26:38.539Z,93741.44
2023-02-02T05:27:35.171Z,93744.91
2023-02-02T05:28:31.792Z,93751.09
2023-02-02T05:29:29.661Z,93744.72
2023-02-02T05:30:26.233Z,93709.91
2023-02-02T05:31:22.899Z,93742.84
2023-02-02T05:32:19.539Z,93741.56
2023-02-02T05:33:18.758Z,93737.88
2023-02-02T05:34:15.373Z,93720.41
2023-02-02T05:35:12.023Z,93739.50
2023-02-02T05:36:08.699Z,93741.75
2023-02-02T05:37:05.293Z,93740.28
2023-02-02T05:38:01.966Z,93731.72
2023-02-02T05:38:58.567Z,93736.69
2023-02-02T05:39:55.145Z,93732.00
2023-02-02T05:40:51.780Z,93697.81
2023-02-02T05:41:48.408Z,93742.66
2023-02-02T05:42:48.308Z,93701.81
2023-02-02T05:43:44.928Z,93681.63
2023-02-02T05:44:41.492Z,93739.81
2023-02-02T05:45:38.064Z,93737.66
2023-02-02T05:46:34.797Z,93738.66
2023-02-02T05:47:31.475Z,93738.72
2023-02-02T05:48:28.111Z,93731.97
2023-02-02T05:49:24.774Z,93733.25
2023-02-02T05:50:21.518Z,93739.09
2023-02-02T05:51:25.759Z,93746.94
2023-02-02T05:52:24.975Z,93742.63
2023-02-02T05:53:21.984Z,93740.81
2023-02-02T05:54:20.742Z,93741.91
2023-02-02T05:55:18.505Z,93744.44
2023-02-02T05:56:15.830Z,93712.94
2023-02-02T05:57:12.895Z,93738.94
2023-02-02T05:58:09.591Z,93743.03
2023-02-02T05:59:07.563Z,93745.81
2023-02-02T06:00:04.825Z,93746.06
2023-02-02T06:01:01.598Z,93743.16
2023-02-02T06:01:58.204Z,93726.78
2023-02-02T06:02:54.945Z,93747.63
2023-02-02T06:03:51.806Z,93741.84
2023-02-02T06:04:48.473Z,93742.56
2023-02-02T06:05:45.108Z,93733.41
2023-02-02T06:06:42.315Z,93742.13
2023-02-02T06:07:38.984Z,93717.97
2023-02-02T06:08:36.535Z,93733.88
2023-02-02T06:09:33.171Z,93746.78
2023-02-02T06:10:31.515Z,93744.53
2023-02-02T06:11:28.133Z,93741.34
2023-02-02T06:12:24.864Z,93741.56
2023-02-02T06:13:22.218Z,93737.22
2023-02-02T06:14:18.827Z,93752.16
2023-02-02T06:15:15.451Z,93751.22
2023-02-02T06:16:12.257Z,93736.50
2023-02-02T06:17:08.885Z,93748.47
2023-02-02T06:18:08.523Z,93752.22
2023-02-02T06:19:05.234Z,93761.53
2023-02-02T06:20:01.814Z,93765.66
2023-02-02T06:20:59.363Z,93761.34
2023-02-02T06:21:55.962Z,93759.56
2023-02-02T06:22:52.592Z,93770.97
2023-02-02T06:23:49.282Z,93767.59
2023-02-02T06:24:45.890Z,93769.91
2023-02-02T06:25:42.557Z,93771.31
2023-02-02T06:26:39.364Z,93770.47
2023-02-02T06:27:36.220Z,93765.22
2023-02-02T06:28:32.847Z,93760.66
2023-02-02T06:29:29.453Z,93773.88
2023-02-02T06:30:27.516Z,93775.31
2023-02-02T06:31:24.750Z,93781.41
2023-02-02T06:32:21.481Z,93780.34
2023-02-02T06:33:18.038Z,93790.47
2023-02-02T06:34:14.847Z,93776.06
2023-02-02T06:35:11.599Z,93781.84
2023-02-02T06:36:08.251Z,93780.75
2023-02-02T06:37:04.820Z,93783.06
2023-02-02T06:38:01.495Z,93755.22
2023-02-02T06:38:58.221Z,93751.31
2023-02-02T06:39:54.798Z,93783.53
2023-02-02T06:40:51.372Z,93791.50
2023-02-02T06:41:48.389Z,93791.78
2023-02-02T06:42:44.963Z,93787.44
2023-02-02T06:43:41.578Z,93794.41
2023-02-02T06:44:38.139Z,93792.25
2023-02-02T06:45:40.168Z,93792.16
2023-02-02T06:46:36.814Z,93798.78
2023-02-02T06:47:33.754Z,93798.47
2023-02-02T06:48:30.380Z,93785.56
2023-02-02T06:49:26.973Z,93782.19
2023-02-02T06:50:23.603Z,93785.38
2023-02-02T06:51:20.612Z,93784.28
2023-02-02T06:52:17.188Z,93789.41
2023-02-02T06:53:13.977Z,93762.06
2023-02-02T06:54:10.694Z,93790.09
2023-02-02T06:55:07.636Z,93792.28
2023-02-02T06:56:07.432Z,93792.03
2023-02-02T06:57:04.041Z,93796.28
2023-02-02T06:58:01.535Z,93790.59
2023-02-02T06:58:58.185Z,93788.91
2023-02-02T06:59:54.914Z,93793.28
2023-02-02T07:00:51.489Z,93788.75
2023-02-02T07:01:50.902Z,93800.34
2023-02-02T07:02:47.702Z,93798.72
2023-02-02T07:03:51.400Z,93760.75
2023-02-02T07:04:48.096Z,93794.44
2023-02-02T07:05:44.834Z,93761.38
2023-02-02T07:06:41.631Z,93676.59
2023-02-02T07:07:38.265Z,93804.19
2023-02-02T07:08:34.892Z,93802.91
2023-02-02T07:09:35.032Z,93803.41
2023-02-02T07:11:13.600Z,93795.88
2023-02-02T07:11:48.224Z,93775.38
2023-02-02T07:12:45.456Z,93746.25
2023-02-02T07:13:42.024Z,93810.34
2023-02-02T07:14:38.571Z,93810.03
2023-02-02T07:15:35.489Z,93816.06
2023-02-02T07:16:32.468Z,93800.25
2023-02-02T07:17:29.328Z,93721.19
2023-02-02T07:18:26.248Z,93799.16
2023-02-02T07:19:22.912Z,93768.81
2023-02-02T07:20:19.500Z,93812.09
2023-02-02T07:21:22.140Z,93809.09
2023-02-02T07:22:18.973Z,93800.81
2023-02-02T07:23:15.567Z,93804.91
2023-02-02T07:24:12.250Z,93812.16
2023-02-02T07:25:08.992Z,93804.97
2023-02-02T07:26:08.291Z,93809.06
2023-02-02T07:27:05.259Z,93798.59
2023-02-02T07:28:01.932Z,93812.66
2023-02-02T07:28:58.580Z,93813.97
2023-02-02T07:29:55.129Z,93808.34
2023-02-02T07:30:51.776Z,93805.72
2023-02-02T07:31:48.506Z,93805.09
2023-02-02T07:32:48.984Z,93814.63
2023-02-02T07:33:47.119Z,93812.81
2023-02-02T07:34:44.294Z,93806.63
2023-02-02T07:35:40.864Z,93812.88
2023-02-02T07:36:38.406Z,93810.50
2023-02-02T07:37:35.058Z,93807.88
2023-02-02T07:38:31.827Z,93802.84
2023-02-02T07:39:28.427Z,93772.13
2023-02-02T07:40:25.085Z,93806.28
2023-02-02T07:41:22.277Z,93800.00
2023-02-02T07:42:18.929Z,93812.13
2023-02-02T07:43:15.641Z,93798.44
2023-02-02T07:44:16.591Z,93799.81
2023-02-02T07:45:24.687Z,93804.91
2023-02-02T07:46:24.655Z,93804.72
2023-02-02T07:47:21.359Z,93803.84
2023-02-02T07:48:18.131Z,93797.00
2023-02-02T07:49:16.520Z,93797.97
2023-02-02T07:50:13.108Z,93779.72
2023-02-02T07:51:13.393Z,93800.03
2023-02-02T07:52:10.078Z,93802.44
2023-02-02T07:53:06.682Z,93796.31
2023-02-02T07:54:03.561Z,93752.03
2023-02-02T07:55:13.852Z,93801.16
2023-02-02T07:56:15.395Z,93794.88
2023-02-02T07:57:13.280Z,93808.25
2023-02-02T07:58:10.929Z,93806.19
2023-02-02T07:59:07.578Z,93804.91
2023-02-02T08:00:04.606Z,93799.59
2023-02-02T08:01:05.904Z,93811.63
2023-02-02T08:02:02.847Z,93805.50
2023-02-02T08:02:59.558Z,93762.84
2023-02-02T08:03:59.089Z,93795.31
2023-02-02T08:04:55.622Z,93792.88
2023-02-02T08:05:52.369Z,93780.94
2023-02-02T08:06:48.932Z,93781.41
2023-02-02T08:07:45.704Z,93766.00
2023-02-02T08:08:42.367Z,93776.03
2023-02-02T08:09:39.083Z,93779.63
2023-02-02T08:10:35.769Z,93781.28
2023-02-02T08:11:32.364Z,93785.34
2023-02-02T08:12:29.045Z,93779.81
2023-02-02T08:13:25.676Z,93780.22
2023-02-02T08:14:22.329Z,93777.34
2023-02-02T08:15:18.922Z,93770.03
2023-02-02T08:16:15.758Z,93745.44
2023-02-02T08:17:12.440Z,93782.81
2023-02-02T08:18:09.137Z,93734.63
2023-02-02T08:19:05.898Z,93775.16
2023-02-02T08:20:02.530Z,93730.13
2023-02-02T08:21:02.869Z,93773.41
2023-02-02T08:21:59.546Z,93771.31
2023-02-02T08:22:56.709Z,93769.63
2023-02-02T08:23:53.857Z,93751.88
2023-02-02T08:24:53.441Z,93769.13
2023-02-02T08:25:51.057Z,93741.56
2023-02-02T08:26:47.757Z,93769.28
2023-02-02T08:27:44.422Z,93761.50
2023-02-02T08:28:42.563Z,93772.47
2023-02-02T08:29:39.450Z,93769.84
2023-02-02T08:30:36.115Z,93763.13
2023-02-02T08:31:39.414Z,93763.78
2023-02-02T08:32:36.036Z,93768.91
2023-02-02T08:33:32.941Z,93759.88
2023-02-02T08:34:29.603Z,93757.56
2023-02-02T08:35:26.500Z,93709.31
2023-02-02T08:36:24.181Z,93733.66
2023-02-02T08:37:20.757Z,93763.84
2023-02-02T08:38:17.398Z,93720.72
2023-02-02T08:39:14.458Z,93762.88
2023-02-02T08:40:11.885Z,93752.13
2023-02-02T08:41:11.080Z,93761.28
2023-02-02T08:42:07.743Z,93754.78
2023-02-02T08:43:04.787Z,93759.06
2023-02-02T08:44:01.474Z,93758.13
2023-02-02T08:46:01.858Z,93758.56
2023-02-02T08:46:17.417Z,93753.03
2023-02-02T08:47:14.192Z,93730.03
2023-02-02T08:48:12.415Z,93748.75
2023-02-02T08:49:11.617Z,93762.28
2023-02-02T08:50:08.994Z,93751.38
2023-02-02T08:51:07.504Z,93752.00
2023-02-02T08:52:04.348Z,93744.66
2023-02-02T08:53:00.884Z,93643.09
2023-02-02T08:53:57.480Z,93752.34
2023-02-02T08:54:54.139Z,93751.72
2023-02-02T08:56:09.402Z,93745.97
2023-02-02T08:57:05.963Z,93742.06
2023-02-02T08:58:02.592Z,93750.31
2023-02-02T08:58:59.721Z,93748.16
2023-02-02T08:59:56.415Z,93749.38
2023-02-02T09:00:53.168Z,93751.38
2023-02-02T09:01:49.800Z,93733.97
2023-02-02T09:02:50.679Z,93763.50
2023-02-02T09:03:47.407Z,93749.78
2023-02-02T09:04:45.641Z,93754.19
2023-02-02T09:05:42.408Z,93707.38
2023-02-02T09:06:40.563Z,93752.66
2023-02-02T09:07:37.158Z,93747.44
2023-02-02T09:08:34.258Z,93745.13
2023-02-02T09:09:30.930Z,93685.88
2023-02-02T09:10:27.886Z,93747.22
2023-02-02T09:11:24.745Z,93717.84
2023-02-02T09:12:21.862Z,93748.59
2023-02-02T09:13:18.471Z,93747.41
2023-02-02T09:14:15.299Z,93746.25
2023-02-02T09:15:12.802Z,93748.53
2023-02-02T09:16:11.781Z,93740.22
2023-02-02T09:17:08.463Z,93742.50
2023-02-02T09:18:05.204Z,93748.72
2023-02-02T09:19:02.411Z,93740.94
2023-02-02T09:19:59.020Z,93741.56
2023-02-02T09:20:59.331Z,93746.25
2023-02-02T09:21:55.938Z,93744.09
2023-02-02T09:22:56.075Z,93740.50
2023-02-02T09:23:56.868Z,93713.41
2023-02-02T09:24:53.419Z,93743.31
2023-02-02T09:25:49.994Z,93738.75
2023-02-02T09:26:46.652Z,93738.53
2023-02-02T09:27:43.277Z,93733.00
2023-02-02T09:28:41.996Z,93741.63
2023-02-02T09:29:38.649Z,93740.25
2023-02-02T09:30:35.279Z,93715.41
2023-02-02T09:31:36.384Z,93727.38
2023-02-02T09:32:33.278Z,93708.81
2023-02-02T09:33:29.982Z,93733.00
2023-02-02T09:34:26.574Z,93715.84
2023-02-02T09:35:23.793Z,93724.59
2023-02-02T09:36:24.979Z,93731.25
2023-02-02T09:37:21.576Z,93728.28
2023-02-02T09:38:18.185Z,93723.97
2023-02-02T09:39:16.685Z,93730.13
2023-02-02T09:40:21.003Z,93727.34
2023-02-02T09:41:38.794Z,93731.28
2023-02-02T09:42:50.361Z,93726.22
2023-02-02T09:44:09.905Z,93721.44
2023-02-02T09:45:13.658Z,93727.13
2023-02-02T09:46:17.539Z,93711.19
2023-02-02T09:47:23.365Z,93714.81
2023-02-02T09:48:29.960Z,93710.50
2023-02-02T09:49:44.471Z,93709.94
2023-02-02T09:50:49.579Z,93713.53
2023-02-02T09:52:13.612Z,93711.94
2023-02-02T09:53:13.242Z,93711.22
2023-02-02T09:54:24.504Z,93721.19
2023-02-02T09:55:41.415Z,93708.91
2023-02-02T09:56:45.082Z,93694.50
2023-02-02T09:57:48.620Z,93678.13
2023-02-02T09:58:57.720Z,93670.03
2023-02-02T09:59:55.929Z,93696.34
2023-02-02T10:01:15.615Z,93691.00
2023-02-02T10:02:25.348Z,93697.03
2023-02-02T10:03:33.938Z,93690.56
2023-02-02T10:04:42.257Z,93688.78
2023-02-02T10:06:03.778Z,93687.94
2023-02-02T10:07:18.515Z,93682.66
2023-02-02T10:08:34.326Z,93653.28
2023-02-02T10:09:48.312Z,93681.94
2023-02-02T10:10:47.166Z,93672.66
2023-02-02T10:11:49.281Z,93672.53
2023-02-02T10:12:58.076Z,93666.34
2023-02-02T10:14:01.498Z,93667.06
2023-02-02T10:14:59.025Z,93673.44
2023-02-02T10:16:05.980Z,93674.69
2023-02-02T10:17:21.909Z,93676.28
2023-02-02T10:18:24.169Z,93673.22
2023-02-02T10:19:27.970Z,93664.09
2023-02-02T10:20:51.052Z,93669.50
2023-02-02T10:22:22.825Z,93667.88
2023-02-02T10:23:27.738Z,93669.00
2023-02-02T10:24:28.386Z,93661.03
2023-02-02T10:25:28.081Z,93663.59
2023-02-02T10:26:33.579Z,93657.28
2023-02-02T10:28:16.829Z,93581.50
2023-02-02T10:29:19.214Z,93649.19
2023-02-02T10:30:18.422Z,93652.94
2023-02-02T10:31:35.486Z,93656.63
2023-02-02T10:32:48.629Z,93647.88
2023-02-02T10:33:47.037Z,93644.38
2023-02-02T10:35:12.540Z,93641.09
2023-02-02T10:36:31.893Z,93645.94
2023-02-02T10:38:13.365Z,93641.00
2023-02-02T10:39:33.386Z,93635.91
2023-02-02T10:41:07.855Z,93638.22
2023-02-02T10:42:29.203Z,93635.19
2023-02-02T10:43:47.358Z,93633.03
2023-02-02T10:44:52.463Z,93643.59
2023-02-02T10:45:51.455Z,93618.22
2023-02-02T10:46:53.443Z,93635.53
2023-02-02T10:47:51.313Z,93634.50
2023-02-02T10:48:49.123Z,93632.09
2023-02-02T10:49:45.913Z,93632.13
2023-02-02T10:50:46.405Z,93603.59
2023-02-02T10:51:52.134Z,93601.47
2023-02-02T10:53:00.249Z,93625.81
2023-02-02T10:54:05.278Z,93626.53
2023-02-02T10:55:04.205Z,93621.06
2023-02-02T10:56:08.829Z,93612.03
2023-02-02T10:57:10.633Z,93617.84
2023-02-02T10:58:13.022Z,93619.09
2023-02-02T10:59:19.580Z,93619.50
2023-02-02T11:00:35.021Z,93617.44
2023-02-02T11:01:31.730Z,93618.84
2023-02-02T11:02:28.444Z,93608.00
2023-02-02T11:03:31.085Z,93603.03
2023-02-02T11:04:47.918Z,93606.25
2023-02-02T11:06:03.043Z,93596.25
2023-02-02T11:07:01.539Z,93590.44
2023-02-02T11:07:58.777Z,93604.88
2023-02-02T11:09:00.599Z,93600.09
2023-02-02T11:09:57.258Z,93586.22
2023-02-02T11:10:55.993Z,93607.88
2023-02-02T11:11:57.586Z,93618.66
2023-02-02T11:12:57.095Z,93610.69
2023-02-02T11:13:59.188Z,93608.75
2023-02-02T11:15:01.838Z,93596.06
2023-02-02T11:16:16.680Z,93590.41
2023-02-02T11:17:22.778Z,93598.28
2023-02-02T11:18:30.949Z,93604.06
2023-02-02T11:19:32.540Z,93600.94
2023-02-02T11:20:39.119Z,93600.13
2023-02-02T11:21:38.207Z,93589.00
2023-02-02T11:22:38.796Z,93540.50
2023-02-02T11:23:35.367Z,93548.47
2023-02-02T11:24:45.147Z,93594.25
2023-02-02T11:25:42.991Z,93588.81
2023-02-02T11:26:55.748Z,93590.63
2023-02-02T11:27:53.142Z,93589.38
2023-02-02T11:28:50.748Z,93585.66
2023-02-02T11:29:59.508Z,93592.47
2023-02-02T11:30:57.117Z,93580.50
2023-02-02T11:31:54.027Z,93490.56
2023-02-02T11:32:50.936Z,93571.47
2023-02-02T11:33:50.514Z,93561.94
2023-02-02T11:34:47.470Z,93468.97
2023-02-02T11:36:02.527Z,93576.72
2023-02-02T11:37:21.910Z,93575.16
2023-02-02T11:38:18.531Z,93579.03
2023-02-02T11:39:21.673Z,93570.72
2023-02-02T11:40:31.560Z,93563.97
2023-02-02T11:41:31.524Z,93562.94
2023-02-02T11:42:29.128Z,93563.66
2023-02-02T11:43:41.337Z,93561.94
2023-02-02T11:44:40.058Z,93564.47
2023-02-02T11:45:39.975Z,93549.47